Time;durP1;ratioP1;P1;durP2;ratioP2;P2;SDS_P1;SDS_P2;PMS_P1;PMS_P2;Temp;Humidity;BMP_temperature;BMP_pressure;BME280_temperature;BME280_humidity;BME280_pressure;Samples;Min_cycle;Max_cycle;Signal;HPM_P1;HPM_P2
2021/12/23 00:00:47;;;;;;;21.17;10.82;;;-1.90;99.90;;;;;;5060890;28;20060;-46
2021/12/23 00:03:13;;;;;;;19.20;11.25;;;-1.90;99.90;;;;;;5036852;28;20045;-47
2021/12/23 00:05:40;;;;;;;19.40;11.10;;;-1.90;99.90;;;;;;5054128;28;20093;-47
2021/12/23 00:08:06;;;;;;;18.98;11.38;;;-1.90;99.90;;;;;;5068828;28;20036;-46
2021/12/23 00:10:32;;;;;;;20.42;11.40;;;-1.90;99.90;;;;;;5060319;28;20040;-46
2021/12/23 00:12:58;;;;;;;22.42;12.00;;;-1.90;99.90;;;;;;5051964;28;20045;-46
2021/12/23 00:15:38;;;;;;;21.15;11.40;;;-1.90;99.90;;;;;;5051658;28;20088;-46
2021/12/23 00:18:58;;;;;;;20.23;11.52;;;-1.90;99.90;;;;;;5071425;28;20619;-46
2021/12/23 00:23:43;;;;;;;23.63;12.70;;;-1.80;99.90;;;;;;5065116;28;20048;-47
2021/12/23 00:26:10;;;;;;;20.88;11.90;;;-1.80;99.90;;;;;;5050505;28;20041;-47
2021/12/23 00:28:37;;;;;;;22.08;11.65;;;-1.80;99.90;;;;;;5051892;28;20045;-47
2021/12/23 00:31:03;;;;;;;20.08;11.85;;;-1.70;99.90;;;;;;5052816;28;20068;-47
2021/12/23 00:33:30;;;;;;;20.23;11.98;;;-1.70;99.90;;;;;;5068584;28;20040;-46
2021/12/23 00:35:56;;;;;;;18.77;10.95;;;-1.70;99.90;;;;;;5052050;28;20633;-47
2021/12/23 00:38:28;;;;;;;21.50;12.20;;;-1.70;99.90;;;;;;5043380;28;20090;-49
2021/12/23 00:40:55;;;;;;;19.60;11.82;;;-1.70;99.90;;;;;;5050737;28;20049;-46
2021/12/23 00:43:21;;;;;;;19.20;11.80;;;-1.70;99.90;;;;;;5033129;28;20487;-46
2021/12/23 00:45:48;;;;;;;22.45;12.88;;;-1.70;99.90;;;;;;5050129;28;20095;-46
2021/12/23 00:48:19;;;;;;;25.87;12.53;;;-1.70;99.90;;;;;;5033417;28;20696;-47
2021/12/23 00:50:47;;;;;;;26.05;13.93;;;-1.70;99.90;;;;;;5036290;28;20055;-46
2021/12/23 00:53:19;;;;;;;21.45;12.95;;;-1.60;99.90;;;;;;5070318;28;20501;-47
2021/12/23 00:55:49;;;;;;;23.15;11.70;;;-1.60;99.90;;;;;;5058314;28;20068;-47
2021/12/23 00:58:15;;;;;;;23.83;11.98;;;-1.60;99.90;;;;;;5063804;28;20102;-46
2021/12/23 01:00:41;;;;;;;22.52;12.27;;;-1.60;99.90;;;;;;5050826;28;20045;-47
2021/12/23 01:03:07;;;;;;;26.20;12.45;;;-1.60;99.90;;;;;;5050496;28;20068;-47
2021/12/23 01:05:33;;;;;;;25.60;12.88;;;-1.60;99.90;;;;;;5053305;28;20036;-46
2021/12/23 01:07:59;;;;;;;22.60;12.52;;;-1.50;99.90;;;;;;5054480;28;20156;-47
2021/12/23 01:10:26;;;;;;;23.83;12.75;;;-1.50;99.90;;;;;;5082736;28;20132;-46
2021/12/23 01:13:02;;;;;;;21.77;12.63;;;-1.50;99.90;;;;;;5051072;28;20037;-46
2021/12/23 01:18:11;;;;;;;20.33;12.38;;;-1.50;99.90;;;;;;5050740;28;20047;-46
2021/12/23 01:20:50;;;;;;;24.25;12.60;;;-1.50;99.90;;;;;;5032759;28;20459;-47
2021/12/23 01:23:17;;;;;;;21.58;13.60;;;-1.50;99.90;;;;;;5034671;28;20084;-46
2021/12/23 01:25:43;;;;;;;22.90;11.87;;;-1.50;99.90;;;;;;5048940;28;20045;-47
2021/12/23 01:28:09;;;;;;;24.48;11.85;;;-1.40;99.90;;;;;;5051418;28;20041;-46
2021/12/23 01:30:40;;;;;;;25.98;12.95;;;-1.40;99.90;;;;;;5061288;28;20521;-46
2021/12/23 01:33:07;;;;;;;23.33;12.98;;;-1.40;99.90;;;;;;5057775;28;20449;-47
2021/12/23 01:35:34;;;;;;;25.17;13.52;;;-1.40;99.90;;;;;;5051169;28;20756;-46
2021/12/23 01:38:01;;;;;;;22.67;13.05;;;-1.40;99.90;;;;;;5069194;28;20037;-46
2021/12/23 01:40:29;;;;;;;22.50;13.32;;;-1.30;99.90;;;;;;5061016;28;20751;-47
2021/12/23 01:42:56;;;;;;;24.60;12.65;;;-1.30;99.90;;;;;;5056414;28;20063;-47
2021/12/23 01:45:25;;;;;;;22.15;12.85;;;-1.30;99.90;;;;;;5052998;28;20048;-46
2021/12/23 01:47:53;;;;;;;25.17;14.00;;;-1.30;99.90;;;;;;5070263;28;20036;-47
2021/12/23 01:50:24;;;;;;;22.48;13.52;;;-1.30;99.90;;;;;;5068738;28;20052;-46
2021/12/23 01:52:50;;;;;;;22.73;13.82;;;-1.30;99.90;;;;;;5032752;28;20455;-49
2021/12/23 01:55:16;;;;;;;22.03;12.93;;;-1.30;99.90;;;;;;5079057;28;20095;-46
2021/12/23 01:57:44;;;;;;;22.92;13.25;;;-1.30;99.90;;;;;;5073934;28;20906;-47
2021/12/23 02:00:12;;;;;;;;;;;-1.30;99.90;;;;;;5051430;28;20040;-48
2021/12/23 02:02:38;;;;;;;23.15;13.23;;;-1.30;99.90;;;;;;5061380;28;19929;-45
2021/12/23 02:05:05;;;;;;;22.55;12.50;;;-1.30;99.90;;;;;;5064052;28;20048;-46
2021/12/23 02:07:31;;;;;;;28.25;14.23;;;-1.30;99.90;;;;;;5039083;28;20052;-47
2021/12/23 02:09:58;;;;;;;24.55;13.48;;;-1.30;99.90;;;;;;5082515;28;20037;-45
2021/12/23 02:12:25;;;;;;;27.27;15.80;;;-1.30;99.90;;;;;;5049207;28;20049;-47
2021/12/23 02:14:51;;;;;;;24.73;14.27;;;-1.20;99.90;;;;;;5045833;28;20166;-45
2021/12/23 02:17:17;;;;;;;29.40;15.60;;;-1.20;99.90;;;;;;5063391;28;20079;-45
2021/12/23 02:19:45;;;;;;;27.30;14.98;;;-1.10;99.90;;;;;;5063829;28;20044;-45
2021/12/23 02:22:11;;;;;;;29.20;15.52;;;-1.20;99.90;;;;;;5050189;28;20175;-44
2021/12/23 02:24:37;;;;;;;27.23;14.35;;;-1.10;99.90;;;;;;5068849;28;20119;-45
2021/12/23 02:27:03;;;;;;;26.40;15.50;;;-1.10;99.90;;;;;;5068294;28;20044;-47
2021/12/23 02:29:29;;;;;;;24.85;14.02;;;-1.10;99.90;;;;;;5049657;28;20538;-45
2021/12/23 02:31:56;;;;;;;26.75;14.30;;;-1.10;99.90;;;;;;5044042;28;20060;-45
2021/12/23 02:34:22;;;;;;;25.05;14.13;;;-1.10;99.90;;;;;;5049660;28;20049;-45
2021/12/23 02:36:59;;;;;;;24.73;14.13;;;-1.10;99.90;;;;;;5049783;28;20057;-46
2021/12/23 02:39:26;;;;;;;23.60;14.07;;;-1.10;99.90;;;;;;5050968;28;20525;-47
2021/12/23 02:41:53;;;;;;;25.17;13.52;;;-1.10;99.90;;;;;;5051838;28;20039;-45
2021/12/23 02:44:19;;;;;;;24.95;14.45;;;-1.10;99.90;;;;;;5048666;28;20037;-45
2021/12/23 02:46:45;;;;;;;26.77;13.85;;;-1.10;99.90;;;;;;5050575;28;20059;-45
2021/12/23 02:49:12;;;;;;;24.55;13.43;;;-1.10;99.90;;;;;;5049560;28;20044;-45
2021/12/23 02:51:39;;;;;;;25.05;15.00;;;-1.10;99.90;;;;;;5087128;28;20049;-45
2021/12/23 02:54:05;;;;;;;24.40;14.30;;;-1.10;99.90;;;;;;5061786;28;20128;-46
2021/12/23 02:56:32;;;;;;;26.95;14.70;;;-1.10;99.90;;;;;;5049744;28;20049;-47
2021/12/23 02:58:58;;;;;;;24.60;14.25;;;-1.10;99.90;;;;;;5068531;28;20044;-45
2021/12/23 03:01:25;;;;;;;25.77;14.85;;;-1.10;99.90;;;;;;5054857;28;20097;-46
2021/12/23 03:03:51;;;;;;;24.27;13.13;;;-1.10;99.90;;;;;;5081980;28;20109;-46
2021/12/23 03:06:19;;;;;;;18.83;12.13;;;-1.10;99.90;;;;;;5047934;28;20136;-46
2021/12/23 03:08:51;;;;;;;24.75;13.60;;;-1.10;99.90;;;;;;5049794;28;20325;-45
2021/12/23 03:11:20;;;;;;;24.92;13.40;;;-1.10;99.90;;;;;;5047669;28;20041;-45
2021/12/23 03:13:47;;;;;;;21.75;13.13;;;-1.10;99.90;;;;;;5048304;28;20178;-45
2021/12/23 03:16:17;;;;;;;20.98;12.40;;;-1.10;99.90;;;;;;5057868;28;20049;-45
2021/12/23 03:18:45;;;;;;;24.55;13.15;;;-1.10;99.90;;;;;;5049225;28;20045;-46
2021/12/23 03:21:11;;;;;;;24.83;13.65;;;-1.10;99.90;;;;;;5063475;28;20036;-46
2021/12/23 03:23:37;;;;;;;25.45;12.77;;;-1.10;99.90;;;;;;5052199;28;20059;-46
2021/12/23 03:26:04;;;;;;;23.52;13.73;;;-1.10;99.90;;;;;;5053138;28;20052;-45
2021/12/23 03:28:31;;;;;;;24.95;12.85;;;-1.10;99.90;;;;;;5085785;28;20060;-46
2021/12/23 03:30:58;;;;;;;22.17;12.93;;;-1.10;99.90;;;;;;5082225;28;20041;-46
2021/12/23 03:33:24;;;;;;;23.50;12.65;;;-1.10;99.90;;;;;;5060570;28;20083;-46
2021/12/23 03:35:50;;;;;;;22.27;13.13;;;-1.10;99.90;;;;;;5035503;28;20072;-45
2021/12/23 03:38:18;;;;;;;23.70;13.90;;;-1.10;99.90;;;;;;5066537;28;20044;-46
2021/12/23 03:40:45;;;;;;;20.77;12.80;;;-1.10;99.90;;;;;;5054605;28;20056;-46
2021/12/23 03:43:16;;;;;;;23.80;13.40;;;-1.10;99.90;;;;;;5034912;28;20045;-46
2021/12/23 03:45:43;;;;;;;25.17;14.13;;;-1.00;99.90;;;;;;5083266;28;20087;-46
2021/12/23 03:48:14;;;;;;;24.75;13.50;;;-1.00;99.90;;;;;;5054815;28;20101;-46
2021/12/23 03:50:41;;;;;;;22.65;13.05;;;-1.00;99.90;;;;;;5053069;28;20105;-45
2021/12/23 03:53:07;;;;;;;21.77;12.98;;;-1.00;99.90;;;;;;5053472;28;20040;-46
2021/12/23 03:55:33;;;;;;;22.08;12.90;;;-1.00;99.90;;;;;;5065197;28;20102;-46
2021/12/23 03:57:59;;;;;;;21.58;12.52;;;-1.00;99.90;;;;;;5058477;28;20052;-45
2021/12/23 04:00:26;;;;;;;25.05;14.13;;;-1.00;99.90;;;;;;5056892;28;20486;-46
2021/12/23 04:02:52;;;;;;;24.67;12.77;;;-1.00;99.90;;;;;;5052397;28;20037;-45
2021/12/23 04:05:19;;;;;;;27.90;14.37;;;-1.00;99.90;;;;;;5091629;28;20051;-46
2021/12/23 04:07:45;;;;;;;21.92;12.80;;;-0.90;99.90;;;;;;5057885;28;20045;-45
2021/12/23 04:10:16;;;;;;;24.52;13.75;;;-0.90;99.90;;;;;;5057156;28;20100;-45
2021/12/23 04:12:43;;;;;;;24.50;13.18;;;-0.90;99.90;;;;;;5051433;28;20049;-45
2021/12/23 04:15:09;;;;;;;;;;;-0.90;99.90;;;;;;5072479;28;20048;-46
2021/12/23 04:17:36;;;;;;;21.42;12.48;;;-0.70;99.90;;;;;;5059002;28;19927;-47
2021/12/23 04:20:16;;;;;;;24.08;13.10;;;-0.80;99.90;;;;;;5084521;28;20374;-46
2021/12/23 04:22:44;;;;;;;24.25;13.10;;;-0.70;99.90;;;;;;5064059;28;20053;-45
2021/12/23 04:25:11;;;;;;;24.85;13.68;;;-0.70;99.90;;;;;;5060470;28;20040;-45
2021/12/23 04:27:38;;;;;;;20.90;12.33;;;-0.60;99.90;;;;;;5069068;28;20129;-46
2021/12/23 04:30:06;;;;;;;23.80;13.70;;;-0.60;99.90;;;;;;5084724;28;20041;-47
2021/12/23 04:32:32;;;;;;;23.98;13.02;;;-0.70;99.90;;;;;;5051369;28;20103;-45
2021/12/23 04:34:58;;;;;;;25.15;13.93;;;-0.80;99.90;;;;;;5052310;28;20056;-46
2021/12/23 04:37:24;;;;;;;23.08;13.00;;;-0.80;99.90;;;;;;5066947;28;20045;-47
2021/12/23 04:39:51;;;;;;;21.67;12.65;;;-0.80;99.90;;;;;;5049208;28;20079;-45
2021/12/23 04:42:17;;;;;;;21.65;12.45;;;-0.80;99.90;;;;;;5072472;28;20467;-45
2021/12/23 04:44:43;;;;;;;24.40;12.65;;;-0.80;99.90;;;;;;5043571;28;20045;-46
2021/12/23 04:47:09;;;;;;;23.00;12.73;;;-0.80;99.90;;;;;;5064389;28;20045;-47
2021/12/23 04:49:35;;;;;;;22.10;12.98;;;-0.80;99.90;;;;;;5067493;28;20525;-45
2021/12/23 04:52:01;;;;;;;24.65;13.93;;;-0.80;99.90;;;;;;5030644;28;20206;-46
2021/12/23 04:54:27;;;;;;;21.98;12.13;;;-0.80;99.90;;;;;;5050341;28;20037;-46
2021/12/23 04:56:53;;;;;;;22.30;13.20;;;-0.80;99.90;;;;;;5101657;28;20131;-48
2021/12/23 04:59:20;;;;;;;23.30;13.93;;;-0.70;99.90;;;;;;5059437;28;20155;-47
2021/12/23 05:01:46;;;;;;;22.55;13.25;;;-0.70;99.90;;;;;;5067362;28;20075;-46
2021/12/23 05:04:15;;;;;;;25.13;12.95;;;-0.70;99.90;;;;;;5055562;28;20128;-47
2021/12/23 05:06:41;;;;;;;25.83;13.93;;;-0.70;99.90;;;;;;5063196;28;20479;-47
2021/12/23 05:09:08;;;;;;;23.10;13.77;;;-0.70;99.90;;;;;;5058694;28;20078;-45
2021/12/23 05:11:35;;;;;;;23.40;13.27;;;-0.70;99.90;;;;;;5049967;28;20406;-46
2021/12/23 05:14:00;;;;;;;22.15;12.77;;;-0.70;99.90;;;;;;5051046;28;20505;-46
2021/12/23 05:16:27;;;;;;;19.30;12.13;;;-0.20;99.90;;;;;;5050475;28;20057;-47
2021/12/23 05:18:53;;;;;;;23.73;13.82;;;-0.70;99.90;;;;;;5050062;28;20051;-46
2021/12/23 05:21:19;;;;;;;24.60;14.00;;;-0.70;99.90;;;;;;5054930;28;20131;-46
2021/12/23 05:23:46;;;;;;;22.35;12.85;;;-0.70;99.90;;;;;;5061436;28;20678;-47
2021/12/23 05:26:12;;;;;;;22.08;12.82;;;-0.70;99.90;;;;;;5054384;28;20098;-46
2021/12/23 05:28:38;;;;;;;21.35;12.50;;;-0.70;99.90;;;;;;5057703;28;20110;-46
2021/12/23 05:31:05;;;;;;;22.88;13.60;;;-0.70;99.90;;;;;;5065175;28;20163;-47
2021/12/23 05:33:32;;;;;;;22.70;12.82;;;-0.60;99.90;;;;;;5083138;28;20130;-47
2021/12/23 05:35:58;;;;;;;24.20;13.50;;;-0.60;99.90;;;;;;5050547;28;20083;-46
2021/12/23 05:38:24;;;;;;;21.50;12.93;;;-0.60;99.90;;;;;;5032652;28;20553;-46
2021/12/23 05:40:50;;;;;;;24.02;13.05;;;-0.60;99.90;;;;;;5067393;28;20166;-48
2021/12/23 05:43:16;;;;;;;25.45;12.95;;;-0.60;99.90;;;;;;5057273;28;20053;-47
2021/12/23 05:45:42;;;;;;;21.77;12.73;;;-0.60;99.90;;;;;;5053337;28;20476;-47
2021/12/23 05:48:08;;;;;;;23.60;13.35;;;-0.60;99.90;;;;;;5053789;28;20152;-49
2021/12/23 05:50:35;;;;;;;24.27;12.90;;;-0.60;99.90;;;;;;5062877;28;20033;-47
2021/12/23 05:53:01;;;;;;;26.65;14.25;;;-0.60;99.90;;;;;;5070306;28;20125;-46
2021/12/23 05:55:27;;;;;;;22.17;12.35;;;-0.60;99.90;;;;;;5062743;28;20045;-46
2021/12/23 05:57:54;;;;;;;26.45;13.13;;;-0.60;99.90;;;;;;5045239;28;20036;-50
2021/12/23 06:00:30;;;;;;;20.73;13.15;;;-0.60;99.90;;;;;;5063812;28;20094;-46
2021/12/23 06:02:58;;;;;;;23.17;12.52;;;-0.50;99.90;;;;;;5031827;28;20059;-49
2021/12/23 06:05:26;;;;;;;;;;;-0.50;99.90;;;;;;5058096;28;20044;-46
2021/12/23 06:07:51;;;;;;;24.00;13.80;;;-0.50;99.90;;;;;;5059328;28;19956;-46
2021/12/23 06:10:18;;;;;;;23.65;12.68;;;-0.50;99.90;;;;;;5077811;28;20431;-46
2021/12/23 06:12:46;;;;;;;25.50;14.68;;;-0.50;99.90;;;;;;5031703;28;20593;-46
2021/12/23 06:15:14;;;;;;;23.65;13.27;;;-0.50;99.90;;;;;;5049421;28;20037;-47
2021/12/23 06:17:40;;;;;;;23.58;13.63;;;-0.50;99.90;;;;;;5048438;28;20055;-48
2021/12/23 06:20:08;;;;;;;19.55;11.68;;;-0.50;99.90;;;;;;5089003;28;20475;-46
2021/12/23 06:22:36;;;;;;;23.83;13.10;;;-0.50;99.90;;;;;;5062992;28;20044;-46
2021/12/23 06:25:09;;;;;;;24.13;12.93;;;-0.40;99.90;;;;;;5066320;28;20106;-46
2021/12/23 06:27:36;;;;;;;22.02;12.20;;;-0.40;99.90;;;;;;5069820;28;20131;-46
2021/12/23 06:30:17;;;;;;;24.30;12.23;;;-0.40;99.90;;;;;;5067023;28;20052;-48
2021/12/23 06:32:45;;;;;;;22.88;12.45;;;-0.40;99.90;;;;;;5068944;28;20040;-47
2021/12/23 06:35:11;;;;;;;22.00;12.05;;;-0.40;99.90;;;;;;5055861;28;20045;-48
2021/12/23 06:37:37;;;;;;;22.60;12.82;;;-0.40;99.90;;;;;;5043375;28;20387;-46
2021/12/23 06:40:04;;;;;;;21.77;11.85;;;-0.40;99.90;;;;;;5049573;28;20081;-46
2021/12/23 06:42:30;;;;;;;24.73;13.40;;;-0.40;99.90;;;;;;5064984;28;20052;-47
2021/12/23 06:44:56;;;;;;;20.98;12.38;;;-0.40;99.90;;;;;;5064755;28;20052;-47
2021/12/23 06:47:23;;;;;;;23.50;12.77;;;-0.40;99.90;;;;;;5068559;28;20130;-46
2021/12/23 06:49:49;;;;;;;20.58;12.75;;;-0.40;99.90;;;;;;5068735;28;20040;-47
2021/12/23 06:52:15;;;;;;;23.63;13.18;;;-0.40;99.90;;;;;;5049742;28;20098;-48
2021/12/23 06:54:46;;;;;;;24.23;12.98;;;-0.40;99.90;;;;;;5061475;28;20037;-47
2021/12/23 06:57:13;;;;;;;23.52;13.35;;;-0.30;99.90;;;;;;5081620;28;20043;-48
2021/12/23 06:59:40;;;;;;;26.33;13.60;;;-0.30;99.90;;;;;;5064218;28;20040;-45
2021/12/23 07:02:06;;;;;;;24.73;12.98;;;-0.30;99.90;;;;;;5060054;28;20546;-46
2021/12/23 07:04:40;;;;;;;23.15;13.38;;;-0.30;99.90;;;;;;5044792;28;20052;-47
2021/12/23 07:07:26;;;;;;;23.33;13.90;;;-0.30;99.90;;;;;;5064197;28;20044;-47
2021/12/23 07:09:54;;;;;;;23.08;13.40;;;-0.20;99.90;;;;;;5064947;28;20371;-47
2021/12/23 07:12:21;;;;;;;24.90;13.43;;;-0.20;99.90;;;;;;5066429;28;20048;-47
2021/12/23 07:14:47;;;;;;;26.30;14.23;;;-0.20;99.90;;;;;;5044953;28;20043;-46
2021/12/23 07:17:13;;;;;;;24.70;14.02;;;-0.20;99.90;;;;;;5065102;28;20419;-46
2021/12/23 07:19:39;;;;;;;28.15;14.45;;;-0.20;99.90;;;;;;5066401;28;20036;-46
2021/12/23 07:22:05;;;;;;;29.33;14.48;;;-0.20;99.90;;;;;;5064905;28;20047;-48
2021/12/23 07:24:34;;;;;;;25.65;14.40;;;-0.20;99.90;;;;;;5049966;28;20045;-47
2021/12/23 07:27:03;;;;;;;25.63;14.50;;;-0.10;99.90;;;;;;5047702;28;20123;-47
2021/12/23 07:29:29;;;;;;;25.80;15.40;;;-0.10;99.90;;;;;;5065505;28;20028;-47
2021/12/23 07:31:55;;;;;;;24.40;14.85;;;-0.20;99.90;;;;;;5066920;28;20040;-46
2021/12/23 07:34:21;;;;;;;24.80;14.90;;;-0.10;99.90;;;;;;5065637;28;20082;-47
2021/12/23 07:36:48;;;;;;;28.63;15.93;;;-0.10;99.90;;;;;;5067390;28;20040;-48
2021/12/23 07:39:14;;;;;;;27.35;16.15;;;-0.10;99.90;;;;;;5066620;28;20068;-46
2021/12/23 07:41:40;;;;;;;28.45;15.93;;;-0.10;99.90;;;;;;5067051;28;20087;-47
2021/12/23 07:44:19;;;;;;;26.20;15.80;;;-0.10;99.90;;;;;;5066223;28;20041;-46
2021/12/23 07:46:46;;;;;;;27.73;15.88;;;-0.10;99.90;;;;;;5063340;28;20037;-48
2021/12/23 07:49:11;;;;;;;30.10;16.45;;;-0.10;99.90;;;;;;5064199;28;20102;-47
2021/12/23 07:51:38;;;;;;;28.83;16.45;;;-0.10;99.90;;;;;;5063942;28;20036;-47
2021/12/23 07:54:04;;;;;;;31.42;16.58;;;-0.10;99.90;;;;;;5050084;28;20043;-46
2021/12/23 07:56:30;;;;;;;30.60;17.60;;;-0.10;99.90;;;;;;5031058;28;20444;-46
2021/12/23 07:58:55;;;;;;;31.13;17.42;;;-0.10;99.90;;;;;;5049856;28;20390;-46
2021/12/23 08:01:22;;;;;;;28.00;16.95;;;-0.10;99.90;;;;;;5062650;28;20098;-47
2021/12/23 08:03:47;;;;;;;29.63;16.05;;;-0.10;99.90;;;;;;5067046;28;20113;-45
2021/12/23 08:06:17;;;;;;;30.75;17.17;;;-0.10;99.90;;;;;;5066320;28;20416;-47
2021/12/23 08:08:44;;;;;;;31.13;16.88;;;-0.10;99.90;;;;;;5068797;28;20037;-49
2021/12/23 08:11:10;;;;;;;32.70;17.23;;;-0.10;99.90;;;;;;5069397;28;20041;-47
2021/12/23 08:13:36;;;;;;;29.52;16.08;;;-0.10;99.90;;;;;;5068331;28;20037;-47
2021/12/23 08:16:03;;;;;;;29.17;15.73;;;-0.10;99.90;;;;;;5066103;28;20055;-48
2021/12/23 08:18:30;;;;;;;31.73;17.10;;;-0.10;99.90;;;;;;5070298;28;20166;-46
2021/12/23 08:20:57;;;;;;;30.20;16.65;;;-0.10;99.90;;;;;;5072176;28;20048;-46
2021/12/23 08:23:24;;;;;;;28.83;16.17;;;0.00;99.90;;;;;;5068476;28;20494;-46
2021/12/23 08:25:50;;;;;;;28.88;15.88;;;-0.10;99.90;;;;;;5049889;28;20048;-46
2021/12/23 08:28:17;;;;;;;28.02;16.65;;;-0.10;99.90;;;;;;5077830;28;20076;-48
2021/12/23 08:30:42;;;;;;;27.95;16.58;;;-0.10;99.90;;;;;;5050726;28;20042;-48
2021/12/23 08:33:10;;;;;;;28.98;17.30;;;-0.10;99.90;;;;;;5052797;28;20041;-47
2021/12/23 08:35:36;;;;;;;28.88;16.38;;;-0.10;99.90;;;;;;5050795;28;20546;-46
2021/12/23 08:38:05;;;;;;;32.40;16.52;;;-0.10;99.90;;;;;;5036961;28;20120;-47
2021/12/23 08:40:32;;;;;;;31.15;17.20;;;-0.10;99.90;;;;;;5064767;28;20549;-48
2021/12/23 08:42:59;;;;;;;30.15;16.95;;;-0.10;99.90;;;;;;5065611;28;20083;-47
2021/12/23 08:45:30;;;;;;;28.45;16.23;;;-0.10;99.90;;;;;;5065933;28;20090;-46
2021/12/23 08:47:56;;;;;;;31.35;16.83;;;-0.10;99.90;;;;;;5068002;28;20040;-47
2021/12/23 08:50:26;;;;;;;30.20;17.87;;;-0.10;99.90;;;;;;5070179;28;20522;-47
2021/12/23 08:52:53;;;;;;;34.10;17.45;;;-0.10;99.90;;;;;;5070094;28;20040;-50
2021/12/23 08:55:20;;;;;;;30.52;18.10;;;-0.10;99.90;;;;;;5066574;28;20123;-46
2021/12/23 08:57:46;;;;;;;;;;;-0.10;99.90;;;;;;5070945;28;20052;-46
2021/12/23 09:00:15;;;;;;;29.50;16.95;;;-0.20;99.90;;;;;;5064894;28;20399;-47
2021/12/23 09:02:42;;;;;;;30.65;17.17;;;-0.20;99.90;;;;;;5063322;28;20052;-47
2021/12/23 09:05:10;;;;;;;30.40;17.90;;;-0.10;99.90;;;;;;5031455;28;20523;-47
2021/12/23 09:07:35;;;;;;;29.65;16.98;;;-0.10;99.90;;;;;;5068105;28;20063;-48
2021/12/23 09:10:03;;;;;;;33.25;17.58;;;-0.10;99.90;;;;;;5068117;28;20360;-47
2021/12/23 09:12:30;;;;;;;;;;;-0.10;99.90;;;;;;5036644;28;20475;-48
2021/12/23 09:14:56;;;;;;;28.80;16.50;;;-0.10;99.90;;;;;;5064423;28;20378;-47
2021/12/23 09:17:23;;;;;;;32.35;17.27;;;-0.10;99.90;;;;;;5067801;28;20107;-47
2021/12/23 09:19:49;;;;;;;29.38;16.75;;;-0.10;99.90;;;;;;5068485;28;20040;-46
2021/12/23 09:22:15;;;;;;;32.05;17.42;;;-0.10;99.90;;;;;;5068590;28;20112;-47
2021/12/23 09:24:46;;;;;;;34.03;17.35;;;-0.10;99.90;;;;;;5068278;28;20037;-47
2021/12/23 09:27:32;;;;;;;35.17;17.10;;;-0.10;99.90;;;;;;5066557;28;20379;-46
2021/12/23 09:32:52;;;;;;;34.00;17.48;;;0.00;99.90;;;;;;5066168;28;20041;-46
2021/12/23 09:35:21;;;;;;;32.50;17.90;;;0.00;99.90;;;;;;5065619;28;20075;-48
2021/12/23 09:37:48;;;;;;;30.50;17.65;;;0.00;99.90;;;;;;5066834;28;20054;-47
2021/12/23 09:40:14;;;;;;;31.48;17.70;;;0.00;99.90;;;;;;5069065;28;20443;-46
2021/12/23 09:42:43;;;;;;;33.60;18.77;;;0.00;99.90;;;;;;5048678;28;20083;-46
2021/12/23 09:45:12;;;;;;;32.95;19.02;;;0.00;99.90;;;;;;5032948;28;20040;-50
2021/12/23 09:47:42;;;;;;;34.53;18.40;;;0.00;99.90;;;;;;5048816;28;20090;-48
2021/12/23 09:50:12;;;;;;;30.58;18.23;;;0.00;99.90;;;;;;5049634;28;20037;-48
2021/12/23 09:52:44;;;;;;;33.00;19.27;;;0.00;99.90;;;;;;5064454;28;20122;-48
2021/12/23 09:55:12;;;;;;;34.45;18.27;;;0.10;99.90;;;;;;5066956;28;20042;-47
2021/12/23 09:57:40;;;;;;;35.45;19.33;;;0.00;99.90;;;;;;5063537;28;20497;-47
2021/12/23 10:00:09;;;;;;;;;;;0.10;99.90;;;;;;5066607;28;20052;-48
2021/12/23 10:02:40;;;;;;;33.05;18.90;;;0.10;99.90;;;;;;5062442;28;19927;-47
2021/12/23 10:05:18;;;;;;;38.45;19.48;;;0.10;99.90;;;;;;5063519;28;20477;-47
2021/12/23 10:07:46;;;;;;;36.55;20.67;;;0.10;99.90;;;;;;5065562;28;20071;-47
2021/12/23 10:10:18;;;;;;;40.47;21.25;;;0.10;99.90;;;;;;5065926;28;20033;-47
2021/12/23 10:30:28;;;;;;;42.10;22.70;;;0.10;99.90;;;;;;5013941;28;20087;-52
2021/12/23 10:33:16;;;;;;;50.92;24.30;;;0.10;99.90;;;;;;5005447;28;20049;-50
2021/12/23 10:38:44;;;;;;;46.25;23.25;;;0.10;99.90;;;;;;5066765;28;20522;-48
2021/12/23 10:41:17;;;;;;;47.90;23.70;;;0.10;99.90;;;;;;5063408;28;20107;-52
2021/12/23 10:43:51;;;;;;;49.38;23.15;;;0.10;99.90;;;;;;5064085;28;20055;-49
2021/12/23 10:46:26;;;;;;;52.83;25.05;;;0.20;99.90;;;;;;5063821;28;20045;-49
2021/12/23 10:49:29;;;;;;;44.72;23.60;;;0.10;99.90;;;;;;5065038;28;20051;-49
2021/12/23 10:52:01;;;;;;;50.95;25.10;;;0.10;99.90;;;;;;5063612;28;20616;-49
2021/12/23 11:00:32;;;;;;;56.90;25.27;;;0.10;99.90;;;;;;5067095;28;20507;-48
2021/12/23 11:03:01;;;;;;;59.28;27.02;;;0.10;99.90;;;;;;5068742;28;20531;-48
2021/12/23 11:05:37;;;;;;;57.15;26.80;;;0.10;99.90;;;;;;5066363;28;20079;-49
2021/12/23 11:35:50;;;;;;;54.28;26.13;;;0.20;99.90;;;;;;5062353;28;20139;-46
2021/12/23 11:38:38;;;;;;;57.28;26.35;;;0.20;99.90;;;;;;5065175;28;20459;-45
2021/12/23 11:43:57;;;;;;;59.58;27.65;;;0.20;99.90;;;;;;5061841;28;20045;-45
2021/12/23 11:46:31;;;;;;;59.05;28.02;;;0.20;99.90;;;;;;5069863;28;20049;-45
2021/12/23 11:49:00;;;;;;;58.70;26.38;;;0.20;99.90;;;;;;5051952;28;20068;-45
2021/12/23 11:51:34;;;;;;;55.92;27.33;;;0.20;99.90;;;;;;5068225;28;20044;-45
2021/12/23 11:54:05;;;;;;;54.17;26.38;;;0.20;99.90;;;;;;5066748;28;20052;-45
2021/12/23 11:56:35;;;;;;;56.30;26.10;;;0.20;99.90;;;;;;5063000;28;20040;-45
2021/12/23 11:59:03;;;;;;;56.70;27.63;;;0.20;99.90;;;;;;5059557;28;20498;-45
2021/12/23 12:01:32;;;;;;;57.85;26.25;;;0.20;99.90;;;;;;5051222;28;20575;-45
2021/12/23 12:04:04;;;;;;;57.80;25.75;;;0.20;99.90;;;;;;5087284;28;20071;-45
2021/12/23 12:06:42;;;;;;;58.72;28.33;;;0.20;99.90;;;;;;5064253;28;20053;-45
2021/12/23 12:09:32;;;;;;;60.30;28.25;;;0.30;99.90;;;;;;5085109;28;20048;-45
2021/12/23 12:12:09;;;;;;;59.80;26.75;;;0.20;99.90;;;;;;5041454;28;20109;-45
2021/12/23 12:14:41;;;;;;;59.78;26.58;;;0.20;99.90;;;;;;5062417;28;20044;-45
2021/12/23 12:17:25;;;;;;;51.33;24.83;;;0.30;99.90;;;;;;5047319;28;20461;-45
2021/12/23 12:20:21;;;;;;;57.78;26.92;;;0.30;99.90;;;;;;5062299;28;20048;-46
2021/12/23 12:22:56;;;;;;;65.68;27.33;;;0.30;99.90;;;;;;5062634;28;20387;-46
2021/12/23 12:25:25;;;;;;;56.03;26.35;;;0.30;99.90;;;;;;5067784;28;20084;-45
2021/12/23 12:27:50;;;;;;;61.65;26.30;;;0.30;99.90;;;;;;5061352;28;20417;-45
2021/12/23 12:30:21;;;;;;;54.80;27.13;;;0.40;99.90;;;;;;5067241;28;20089;-45
2021/12/23 12:32:48;;;;;;;53.22;26.10;;;0.30;99.90;;;;;;5064085;28;20044;-45
2021/12/23 12:35:14;;;;;;;53.00;26.25;;;0.40;99.90;;;;;;5066322;28;20047;-45
2021/12/23 12:37:42;;;;;;;51.70;25.75;;;0.40;99.90;;;;;;5064041;28;20452;-45
2021/12/23 12:40:10;;;;;;;56.92;27.33;;;0.40;99.90;;;;;;5052498;28;20048;-44
2021/12/23 12:42:41;;;;;;;53.83;25.27;;;0.40;99.90;;;;;;5061331;28;20052;-44
2021/12/23 12:45:13;;;;;;;53.75;25.95;;;0.40;99.90;;;;;;5065961;28;20045;-44
2021/12/23 12:47:53;;;;;;;55.53;26.15;;;0.40;99.90;;;;;;5073700;28;20072;-45
2021/12/23 12:50:26;;;;;;;55.78;25.63;;;0.50;99.90;;;;;;5068430;28;20064;-45
2021/12/23 12:52:55;;;;;;;57.40;26.85;;;0.50;99.90;;;;;;5068691;28;20044;-44
2021/12/23 12:55:27;;;;;;;58.80;26.35;;;0.50;99.90;;;;;;5065199;28;20076;-45
2021/12/23 12:57:57;;;;;;;87.25;72.30;;;0.50;99.90;;;;;;5050767;28;20044;-45
2021/12/23 13:00:32;;;;;;;86.20;72.53;;;0.50;99.90;;;;;;5070565;28;20036;-44
2021/12/23 13:03:19;;;;;;;78.38;69.78;;;0.50;99.90;;;;;;5066217;28;20119;-45
2021/12/23 13:05:49;;;;;;;79.78;70.47;;;0.50;99.90;;;;;;5068872;28;20040;-45
2021/12/23 13:08:16;;;;;;;84.53;70.93;;;0.60;99.90;;;;;;5070334;28;20028;-44
2021/12/23 13:10:47;;;;;;;81.30;72.35;;;0.60;99.90;;;;;;5068945;28;20098;-45
2021/12/23 13:13:35;;;;;;;85.32;71.13;;;0.60;99.90;;;;;;5033259;28;20053;-44
2021/12/23 13:16:10;;;;;;;86.83;71.03;;;0.60;99.90;;;;;;5063884;28;20048;-45
2021/12/23 13:18:36;;;;;;;85.70;72.50;;;0.60;99.90;;;;;;5067184;28;20737;-45
2021/12/23 13:21:05;;;;;;;83.80;71.15;;;0.60;99.90;;;;;;5071092;28;20047;-45
2021/12/23 13:23:43;;;;;;;79.97;71.22;;;0.60;99.90;;;;;;5091261;28;20201;-45
2021/12/23 13:26:12;;;;;;;85.45;73.13;;;0.60;99.90;;;;;;5064977;28;20067;-45
2021/12/23 13:28:46;;;;;;;86.32;72.07;;;0.60;99.90;;;;;;5066323;28;20036;-45
2021/12/23 13:31:22;;;;;;;82.55;72.10;;;0.60;99.90;;;;;;5063460;28;20550;-45
2021/12/23 13:33:54;;;;;;;93.60;74.22;;;0.70;99.90;;;;;;5080233;28;20081;-44
2021/12/23 13:36:25;;;;;;;80.65;70.57;;;0.70;99.90;;;;;;5070271;28;20186;-47
2021/12/23 13:38:59;;;;;;;93.70;72.15;;;0.60;99.90;;;;;;5063411;28;20065;-47
2021/12/23 13:41:30;;;;;;;96.32;74.80;;;0.60;99.90;;;;;;5068555;28;20040;-47
2021/12/23 13:43:59;;;;;;;89.88;73.00;;;0.60;99.90;;;;;;5067064;28;20097;-47